METAR Data
IDs: Format: Raw Decoded Include TAF

Data at: 2108 UTC 18 Sep 2018

K1A6 182055Z AUTO 29005KT 10SM CLR 30/19 A2997 RMK AO2 T03010186
K1A6 182035Z AUTO 01004KT 10SM SCT050 30/19 A2997 RMK AO2 T03030186
K1A6 182015Z AUTO 34004KT 10SM SCT050 SCT070 SCT085 30/19 A2997 RMK AO2 T02970187
K1A6 181955Z AUTO 29004KT 10SM CLR 30/19 A2997 RMK AO2 T02990187
K1A6 181935Z AUTO 00000KT 10SM CLR 30/18 A2998 RMK AO2 T03000181
K1A6 181915Z AUTO 01004KT 10SM SCT049 30/19 A2999 RMK AO2 T02990187
K1A6 181855Z AUTO 02005KT 10SM SCT047 30/18 A3000 RMK AO2 T02980181
K1A6 181835Z AUTO 35008KT 10SM SCT045 SCT060 29/19 A3000 RMK AO2 T02930187
K1A6 181815Z AUTO 02005KT 10SM SCT042 SCT050 30/19 A3000 RMK AO2 T02960190
K1A6 181755Z AUTO 01005KT 10SM SCT040 BKN050 29/20 A3001 RMK AO2 T02870198 10291 20199
K1A6 181735Z AUTO 36005KT 10SM SCT039 SCT045 28/20 A3002 RMK AO2 T02830198
K1A6 181715Z AUTO 00000KT 10SM SCT032 SCT039 BKN046 28/21 A3002 RMK AO2 T02820209
K1A6 181655Z AUTO 00000KT 10SM SCT031 BKN039 BKN050 28/21 A3002 RMK AO2 T02840210
K1A6 181635Z AUTO 00000KT 10SM SCT026 BKN034 BKN040 28/22 A3003 RMK AO2 T02750215
K1A6 181615Z AUTO 00000KT 10SM BKN028 BKN033 OVC043 27/21 A3004 RMK AO2 T02700213
K1A6 181555Z AUTO 00000KT 10SM SCT024 BKN032 OVC046 26/22 A3004 RMK AO2 T02640215
K1A6 181535Z AUTO 00000KT 10SM BKN029 BKN035 27/22 A3004 RMK AO2 T02680216
K1A6 181515Z AUTO 00000KT 10SM CLR 26/21 A3004 RMK AO2 T02600214
K1A6 181455Z AUTO 00000KT 10SM CLR 25/22 A3005 RMK AO2 T02490217
K1A6 181435Z AUTO 00000KT 10SM CLR 23/22 A3005 RMK AO2 T02320220
K1A6 181415Z AUTO 00000KT 10SM SCT004 22/22 A3004 RMK AO2 T02190217
K1A6 181355Z AUTO 00000KT 10SM OVC002 21/21 A3004 RMK AO2 T02100210
K1A6 181335Z AUTO 00000KT 3SM BR OVC002 21/21 A3004 RMK AO2 T02050205
K1A6 181315Z AUTO 00000KT 10SM OVC002 20/20 A3004 RMK AO2 T02010201
K1A6 181255Z AUTO 00000KT 1 1/4SM BR OVC002 20/20 A3004 RMK AO2 T02000200
K1A6 181235Z AUTO 00000KT 1SM BR OVC002 20/20 A3005 RMK AO2 T02000200
K1A6 181215Z AUTO 00000KT 3/4SM BR OVC002 20/20 A3004 RMK AO2 T02000200
K1A6 181155Z AUTO 00000KT 1 1/2SM BR OVC002 20/20 A3004 RMK AO2 70004 T02000200 10205 20200
K1A6 181135Z AUTO 00000KT 1/2SM FG OVC002 20/20 A3003 RMK AO2 T02000200
K1A6 181115Z AUTO 00000KT 1 1/4SM BR OVC002 20/20 A3003 RMK AO2 T02000200
K1A6 181055Z AUTO 00000KT 1/2SM FG OVC002 20/20 A3003 RMK AO2 T02000200
K1A6 181035Z AUTO 00000KT 1/2SM FG OVC002 20/20 A3002 RMK AO2 T02000200
K1A6 181015Z AUTO 00000KT 1/2SM FG OVC002 20/20 A3002 RMK AO2 T02030203
K1A6 180955Z AUTO 00000KT 3/4SM BR OVC002 20/20 A3002 RMK AO2 T02020202
K1A6 180935Z AUTO 00000KT 3/4SM BR OVC002 20/20 A3002 RMK AO2 T02030203
K1A6 180915Z AUTO 00000KT 3SM BR OVC002 20/20 A3001 RMK AO2 T02030203
K1A6 180855Z AUTO 00000KT 2SM BR OVC002 20/20 A3001 RMK AO2 T02020202
K1A6 180835Z AUTO 00000KT 2 1/2SM BR OVC002 20/20 A3001 RMK AO2 T02020202
K1A6 180815Z AUTO 00000KT 1SM BR OVC002 20/20 A3001 RMK AO2 T02030203
K1A6 180755Z AUTO 00000KT 3/4SM BR OVC002 20/20 A3001 RMK AO2 T02030203
K1A6 180735Z AUTO 00000KT 2SM BR OVC002 21/21 A3001 RMK AO2 T02050205
K1A6 180715Z AUTO 00000KT 1 1/4SM BR OVC002 20/20 A3001 RMK AO2 T02030203
K1A6 180655Z AUTO 00000KT 1/2SM FG OVC002 20/20 A3001 RMK AO2 T02030203
K1A6 180635Z AUTO 00000KT 3/4SM BR OVC002 21/21 A3001 RMK AO2 T02050205
K1A6 180615Z AUTO 00000KT 1 1/2SM BR OVC002 20/20 A3001 RMK AO2 T02030203
K1A6 180555Z AUTO 00000KT 10SM OVC002 21/21 A3001 RMK AO2 60002 T02050205 10221 20205 402410203
K1A6 180535Z AUTO 00000KT 10SM BKN002 21/21 A3001 RMK AO2 T02060206
K1A6 180515Z AUTO 00000KT 10SM CLR 21/21 A3001 RMK AO2 T02050205
K1A6 180455Z AUTO 00000KT 10SM SCT004 21/21 A3001 RMK AO2 T02060206
K1A6 180435Z AUTO 00000KT 10SM OVC004 21/21 A3001 RMK AO2 T02060206
K1A6 180415Z AUTO 00000KT 10SM BKN004 BKN070 21/21 A3002 RMK AO2 T02070207
K1A6 180355Z AUTO 00000KT 10SM BKN070 21/21 A3002 RMK AO2 P0001 T02080208
K1A6 180335Z AUTO 00000KT 10SM SCT039 OVC070 21/21 A3002 RMK AO2 P0001 T02100210
K1A6 180315Z AUTO 00000KT 10SM SCT024 BKN039 OVC080 21/21 A3002 RMK AO2 P0001 T02100210
K1A6 180255Z AUTO 00000KT 10SM -RA SCT024 BKN041 OVC110 21/21 A3002 RMK AO2 P0001 60001 T02100210
K1A6 180235Z AUTO 00000KT 10SM DZ SCT024 BKN035 OVC100 21/21 A3002 RMK AO2 P0001 T02120212
K1A6 180215Z AUTO 00000KT 10SM SCT026 OVC035 21/21 A3001 RMK AO2 P0001 T02120212
K1A6 180155Z AUTO 00000KT 10SM -RA SCT022 BKN028 OVC033 21/21 A3001 RMK AO2 T02130213
K1A6 180135Z AUTO 00000KT 10SM OVC022 22/22 A3000 RMK AO2 T02160216
K1A6 180115Z AUTO 00000KT 10SM BKN022 OVC036 22/22 A3000 RMK AO2 T02170217
K1A6 180055Z AUTO 00000KT 10SM BKN022 OVC036 22/22 A2999 RMK AO2 T02160216
K1A6 180035Z AUTO 00000KT 10SM BKN024 BKN029 OVC043 22/21 A2998 RMK AO2 T02180213
K1A6 180015Z AUTO 00000KT 10SM SCT020 SCT026 OVC035 22/21 A2997 RMK AO2 T02200212
K1A6 172355Z AUTO 00000KT 10SM SCT022 BKN030 OVC038 22/21 A2996 RMK AO2 T02210210 10240 20216
K1A6 172335Z AUTO 28003KT 10SM BKN022 BKN027 OVC032 22/21 A2996 RMK AO2 T02170214
K1A6 172315Z AUTO 33003KT 10SM RA OVC022 22/22 A2996 RMK AO2 T02190215
K1A6 172255Z AUTO 33004KT 7SM +RA OVC022 22/21 A2995 RMK AO2 T02220211
K1A6 172235Z AUTO 28004KT 10SM OVC022 22/21 A2994 RMK AO2 T02230213
K1A6 172215Z AUTO 26003KT 4SM DZ SCT016 OVC022 22/22 A2994 RMK AO2 T02190218
K1A6 172155Z AUTO 31003KT 4SM DZ SCT018 BKN024 OVC036 22/22 A2993 RMK AO2 T02200216
K1A6 172135Z AUTO 00000KT 10SM OVC020 23/21 A2993 RMK AO2 T02250210
K1A6 172115Z AUTO 00000KT 7SM OVC020 23/21 A2992 RMK AO2 T02250209
K1A6 172055Z AUTO 00000KT 10SM BKN020 OVC034 23/21 A2992 RMK AO2 T02250211
K1A6 172035Z AUTO 30003KT 3SM RA SCT022 BKN034 OVC050 22/22 A2991 RMK AO2 T02230215
K1A6 172015Z AUTO 27007KT 10SM BKN022 BKN034 OVC050 24/21 A2991 RMK AO2 T02370209
K1A6 171955Z AUTO 25003KT 10SM OVC024 24/21 A2991 RMK AO2 T02400214
K1A6 171935Z AUTO 29005KT 10SM -DZ SCT015 OVC024 24/22 A2990 RMK AO2 T02360219
K1A6 171915Z AUTO 28003KT 10SM SCT015 OVC024 24/22 A2990 RMK AO2 T02370223
K1A6 171855Z AUTO 00000KT 3SM +RA SCT015 SCT020 OVC026 23/22 A2990 RMK AO2 T02300221
K1A6 171835Z AUTO 25004KT 7SM SCT013 BKN027 OVC045 24/22 A2990 RMK AO2 T02350219
K1A6 171815Z AUTO 00000KT 5SM -DZ SCT012 BKN018 OVC046 23/22 A2991 RMK AO2 T02320222
K1A6 171755Z AUTO 30005KT 5SM RA SCT013 BKN018 OVC025 24/23 A2991 RMK AO2 60002 T02350225 10241 20208
K1A6 171735Z AUTO 25003KT 10SM SCT013 BKN026 OVC050 23/22 A2991 RMK AO2 T02330222
K1A6 171715Z AUTO 00000KT 10SM SCT010 SCT015 OVC042 24/22 A2991 RMK AO2 T02380220
K1A6 171655Z AUTO 00000KT 5SM BR SCT010 BKN015 OVC019 23/22 A2991 RMK AO2 T02340222
K1A6 171635Z AUTO 00000KT 10SM SCT015 BKN021 OVC041 24/22 A2990 RMK AO2 T02360221
K1A6 171615Z AUTO 00000KT 5SM BR SCT011 BKN017 OVC030 23/22 A2991 RMK AO2 T02300222
K1A6 171555Z AUTO 00000KT 10SM SCT013 BKN017 OVC038 23/22 A2991 RMK AO2 T02310221
K1A6 171535Z AUTO 00000KT 3SM -DZ SCT012 BKN028 OVC039 23/23 A2991 RMK AO2 T02270225
K1A6 171515Z AUTO 24003KT 4SM RA SCT013 OVC027 23/22 A2991 RMK AO2 T02280216
K1A6 171455Z AUTO 00000KT 7SM SCT016 OVC025 23/22 A2991 RMK AO2 P0001 60002 T02290222
K1A6 171435Z AUTO 00000KT 7SM SCT008 BKN019 OVC025 22/22 A2990 RMK AO2 P0001 T02230217
K1A6 171415Z AUTO 00000KT 4SM -DZ BKN015 BKN022 OVC027 22/22 A2990 RMK AO2 P0001 T02170217
K1A6 171355Z AUTO 00000KT 3SM -DZ SCT006 BKN027 OVC032 22/22 A2990 RMK AO2 P0001 T02150215
K1A6 171335Z AUTO 00000KT 2SM DZ SCT011 BKN019 OVC034 21/21 A2989 RMK AO2 P0001 T02130213
K1A6 171315Z AUTO 00000KT 2SM DZ SCT011 BKN021 OVC027 21/21 A2989 RMK AO2 T02100210
K1A6 171255Z AUTO 00000KT 2 1/2SM RA SCT022 BKN026 OVC032 21/21 A2989 RMK AO2 T02100210
K1A6 171235Z AUTO 00000KT 5SM BR SCT016 BKN025 OVC049 21/21 A2988 RMK AO2 T02100210
K1A6 171215Z AUTO 00000KT 5SM BR SCT013 BKN018 OVC028 21/21 A2988 RMK AO2 T02100210
K1A6 171155Z AUTO 00000KT 10SM BKN015 OVC019 21/21 A2987 RMK AO2 60002 70081 T02100210 10210 20203
K1A6 171135Z AUTO 00000KT 10SM OVC013 21/21 A2987 RMK AO2 T02060206
K1A6 171115Z AUTO 00000KT 4SM BR OVC015 21/21 A2987 RMK AO2 T02060206
K1A6 171055Z AUTO 00000KT 10SM OVC015 21/21 A2986 RMK AO2 T02060206
K1A6 171035Z AUTO 00000KT 10SM OVC017 21/21 A2986 RMK AO2 T02060206
K1A6 171015Z AUTO 00000KT 10SM OVC013 21/21 A2985 RMK AO2 T02050205
K1A6 170955Z AUTO 16003KT 10SM OVC015 21/21 A2985 RMK AO2 T02050205
K1A6 170935Z AUTO 00000KT 10SM BKN012 OVC019 21/21 A2985 RMK AO2 T02050205
K1A6 170915Z AUTO 00000KT 10SM SCT006 OVC012 20/20 A2984 RMK AO2 T02040204